createdAt,value
2022-10-06T00:01:10.455Z,1.63
2022-10-06T00:03:38.961Z,1.60
2022-10-06T00:06:07.237Z,1.92
2022-10-06T00:08:35.921Z,1.05
2022-10-06T00:11:03.706Z,1.15
2022-10-06T00:13:31.182Z,1.15
2022-10-06T00:15:58.694Z,1.45
2022-10-06T00:18:27.305Z,1.02
2022-10-06T00:20:56.427Z,0.63
2022-10-06T00:23:24.217Z,1.15
2022-10-06T00:25:51.737Z,1.52
2022-10-06T00:28:19.378Z,1.35
2022-10-06T00:30:47.614Z,1.20
2022-10-06T00:33:16.646Z,1.20
2022-10-06T00:35:44.675Z,1.15
2022-10-06T00:38:16.359Z,0.85
2022-10-06T00:40:48.414Z,1.17
2022-10-06T00:43:51.594Z,0.88
2022-10-06T00:46:22.631Z,0.98
2022-10-06T00:48:53.005Z,1.67
2022-10-06T00:51:21.470Z,1.50
2022-10-06T00:53:49.470Z,1.08
2022-10-06T00:56:16.910Z,0.95
2022-10-06T00:58:44.373Z,0.88
2022-10-06T01:01:13.222Z,0.85
2022-10-06T01:03:45.118Z,0.82
2022-10-06T01:06:12.682Z,1.10
2022-10-06T01:08:40.741Z,1.05
2022-10-06T01:11:13.823Z,0.98
2022-10-06T01:13:43.960Z,0.80
2022-10-06T01:16:24.948Z,0.50
2022-10-06T01:18:53.639Z,0.73
2022-10-06T01:21:32.087Z,0.40
2022-10-06T01:23:59.812Z,0.65
2022-10-06T01:26:28.039Z,0.80
2022-10-06T01:28:56.009Z,0.60
2022-10-06T01:31:23.788Z,0.77
2022-10-06T01:33:55.156Z,0.43
2022-10-06T01:36:22.600Z,0.90
2022-10-06T01:38:49.995Z,0.50
2022-10-06T01:41:17.487Z,0.68
2022-10-06T01:43:45.072Z,0.68
2022-10-06T01:46:12.586Z,0.52
2022-10-06T01:48:40.047Z,0.50
2022-10-06T01:51:09.906Z,1.30
2022-10-06T01:53:37.330Z,0.68
2022-10-06T01:56:04.796Z,1.13
2022-10-06T01:58:32.552Z,0.50
2022-10-06T02:01:04.551Z,0.70
2022-10-06T02:03:31.997Z,0.63
2022-10-06T02:05:59.557Z,0.75
2022-10-06T02:08:27.261Z,0.47
2022-10-06T02:10:54.971Z,0.80
2022-10-06T02:13:25.050Z,0.65
2022-10-06T02:15:56.049Z,0.85
2022-10-06T02:18:24.305Z,1.38
2022-10-06T02:20:51.830Z,0.98
2022-10-06T02:23:19.263Z,0.80
2022-10-06T02:25:47.294Z,0.63
2022-10-06T02:28:15.032Z,0.60
2022-10-06T02:30:42.527Z,0.63
2022-10-06T02:33:10.035Z,0.90
2022-10-06T02:35:37.469Z,0.65
2022-10-06T02:38:04.880Z,0.77
2022-10-06T02:40:32.746Z,1.00
2022-10-06T02:43:00.423Z,0.60
2022-10-06T02:45:28.507Z,0.60
2022-10-06T02:47:55.984Z,0.55
2022-10-06T02:50:23.538Z,0.75
2022-10-06T02:52:51.070Z,0.50
2022-10-06T02:55:18.561Z,0.43
2022-10-06T02:57:46.096Z,0.70
2022-10-06T03:00:13.815Z,0.60
2022-10-06T03:02:41.486Z,0.75
2022-10-06T03:05:09.420Z,0.30
2022-10-06T03:07:36.801Z,0.77
2022-10-06T03:10:04.428Z,1.15
2022-10-06T03:12:32.171Z,0.75
2022-10-06T03:14:59.681Z,0.60
2022-10-06T03:17:27.130Z,0.52
2022-10-06T03:19:57.818Z,0.70
2022-10-06T03:22:25.084Z,0.60
2022-10-06T03:24:52.547Z,0.90
2022-10-06T03:27:20.040Z,0.50
2022-10-06T03:29:47.461Z,0.75
2022-10-06T03:32:14.926Z,0.70
2022-10-06T03:34:42.410Z,0.70
2022-10-06T03:37:09.954Z,0.68
2022-10-06T03:39:37.630Z,0.70
2022-10-06T03:42:05.172Z,0.75
2022-10-06T03:44:35.577Z,0.85
2022-10-06T03:47:03.348Z,0.88
2022-10-06T03:49:30.944Z,0.80
2022-10-06T03:51:58.373Z,0.70
2022-10-06T03:54:25.829Z,1.02
2022-10-06T03:56:54.256Z,1.40
2022-10-06T03:59:21.773Z,0.98
2022-10-06T04:01:52.219Z,0.52
2022-10-06T04:04:19.724Z,0.88
2022-10-06T04:06:47.176Z,1.05
2022-10-06T04:09:15.883Z,1.08
2022-10-06T04:11:44.615Z,1.17
2022-10-06T04:14:13.814Z,0.60
2022-10-06T04:16:46.421Z,0.80
2022-10-06T04:19:14.423Z,0.90
2022-10-06T04:21:42.906Z,1.00
2022-10-06T04:24:11.520Z,0.47
2022-10-06T04:26:40.391Z,0.77
2022-10-06T04:29:07.861Z,0.75
2022-10-06T04:31:56.960Z,0.70
2022-10-06T04:34:25.249Z,1.35
2022-10-06T04:36:54.195Z,0.50
2022-10-06T04:39:22.298Z,1.00
2022-10-06T04:41:49.660Z,0.75
2022-10-06T04:44:17.099Z,6.65
2022-10-06T04:46:45.299Z,2.47
2022-10-06T04:49:18.974Z,1.67
2022-10-06T04:51:51.139Z,1.65
2022-10-06T04:54:19.698Z,1.00
2022-10-06T04:56:47.347Z,1.40
2022-10-06T04:59:14.889Z,0.95
2022-10-06T05:01:42.353Z,1.55
2022-10-06T05:04:09.940Z,0.90
2022-10-06T05:06:41.729Z,1.10
2022-10-06T05:09:11.041Z,1.60
2022-10-06T05:11:38.843Z,1.45
2022-10-06T05:14:06.573Z,1.15
2022-10-06T05:16:34.174Z,0.82
2022-10-06T05:19:01.669Z,1.85
2022-10-06T05:21:30.385Z,1.58
2022-10-06T05:23:58.291Z,0.90
2022-10-06T05:26:27.305Z,1.50
2022-10-06T05:28:54.985Z,1.13
2022-10-06T05:31:23.950Z,1.50
2022-10-06T05:33:51.443Z,1.20
2022-10-06T05:36:20.613Z,1.25
2022-10-06T05:38:48.692Z,1.35
2022-10-06T05:41:20.820Z,1.35
2022-10-06T05:43:48.733Z,1.00
2022-10-06T05:46:20.755Z,1.17
2022-10-06T05:48:52.610Z,1.38
2022-10-06T05:51:21.118Z,1.23
2022-10-06T05:53:49.405Z,0.77
2022-10-06T05:56:18.073Z,1.27
2022-10-06T05:58:46.494Z,1.25
2022-10-06T06:01:15.701Z,1.70
2022-10-06T06:03:44.220Z,1.75
2022-10-06T06:06:17.763Z,1.13
2022-10-06T06:08:45.268Z,1.35
2022-10-06T06:11:13.075Z,1.73
2022-10-06T06:13:40.635Z,1.35
2022-10-06T06:16:08.817Z,0.95
2022-10-06T06:18:37.389Z,2.15
2022-10-06T06:21:05.994Z,1.45
2022-10-06T06:23:35.504Z,1.75
2022-10-06T06:26:04.876Z,1.63
2022-10-06T06:28:32.760Z,1.80
2022-10-06T06:31:03.188Z,1.45
2022-10-06T06:33:34.443Z,1.55
2022-10-06T06:36:03.869Z,1.85
2022-10-06T06:38:32.850Z,1.48
2022-10-06T06:41:00.427Z,1.73
2022-10-06T06:43:28.199Z,1.90
2022-10-06T06:46:03.604Z,1.48
2022-10-06T06:48:31.982Z,2.05
2022-10-06T06:50:59.645Z,1.50
2022-10-06T06:53:27.180Z,1.80
2022-10-06T06:55:54.995Z,1.95
2022-10-06T06:58:22.537Z,2.00
2022-10-06T07:00:50.581Z,2.38
2022-10-06T07:03:38.442Z,1.80
2022-10-06T07:06:10.045Z,1.50
2022-10-06T07:08:38.710Z,1.35
2022-10-06T07:11:18.508Z,1.35
2022-10-06T07:13:46.367Z,1.10
2022-10-06T07:16:36.134Z,0.90
2022-10-06T07:19:24.805Z,1.50
2022-10-06T07:22:19.299Z,1.27
2022-10-06T07:25:05.321Z,0.90
2022-10-06T07:27:34.025Z,1.17
2022-10-06T07:30:01.478Z,1.17
2022-10-06T07:32:31.515Z,1.13
2022-10-06T07:34:59.418Z,0.82
2022-10-06T07:37:29.215Z,1.05
2022-10-06T07:39:57.068Z,1.52
2022-10-06T07:42:24.543Z,1.23
2022-10-06T07:45:12.113Z,1.13
2022-10-06T07:47:39.600Z,1.38
2022-10-06T07:50:07.556Z,1.17
2022-10-06T07:52:39.728Z,2.10
2022-10-06T07:55:07.953Z,1.33
2022-10-06T07:57:36.039Z,1.40
2022-10-06T08:00:08.218Z,1.17
2022-10-06T08:02:36.273Z,1.30
2022-10-06T08:05:04.698Z,1.60
2022-10-06T08:07:32.543Z,1.20
2022-10-06T08:09:59.971Z,0.88
2022-10-06T08:12:38.295Z,1.58
2022-10-06T08:15:07.682Z,1.70
2022-10-06T08:17:37.103Z,1.50
2022-10-06T08:20:09.068Z,1.60
2022-10-06T08:22:36.897Z,1.40
2022-10-06T08:25:06.758Z,1.42
2022-10-06T08:27:35.678Z,1.92
2022-10-06T08:30:03.905Z,1.67
2022-10-06T08:32:32.729Z,1.30
2022-10-06T08:35:00.148Z,1.55
2022-10-06T08:37:27.944Z,1.90
2022-10-06T08:39:55.575Z,1.85
2022-10-06T08:42:29.102Z,2.40
2022-10-06T08:45:04.205Z,1.52
2022-10-06T08:47:35.589Z,1.20
2022-10-06T08:50:04.893Z,1.58
2022-10-06T08:52:52.792Z,1.77
2022-10-06T08:55:27.499Z,1.17
2022-10-06T08:58:21.304Z,2.40
2022-10-06T09:00:48.854Z,1.80
2022-10-06T09:03:24.548Z,1.73
2022-10-06T09:05:54.133Z,1.65
2022-10-06T09:08:21.494Z,1.63
2022-10-06T09:10:55.060Z,2.88
2022-10-06T09:13:26.570Z,1.80
2022-10-06T09:15:57.125Z,1.98
2022-10-06T09:19:06.684Z,1.55
2022-10-06T09:21:46.200Z,2.33
2022-10-06T09:24:15.622Z,1.77
2022-10-06T09:26:45.838Z,1.70
2022-10-06T09:29:13.623Z,1.75
2022-10-06T09:31:48.038Z,1.52
2022-10-06T09:34:20.309Z,2.78
2022-10-06T09:37:17.151Z,1.52
2022-10-06T09:39:51.379Z,1.60
2022-10-06T09:42:23.409Z,1.45
2022-10-06T09:45:16.875Z,1.73
2022-10-06T09:50:16.849Z,1.90
2022-10-06T09:52:48.387Z,2.10
2022-10-06T09:55:18.434Z,1.67
2022-10-06T09:57:51.096Z,1.52
2022-10-06T10:00:36.496Z,1.20
2022-10-06T10:03:05.769Z,0.88
2022-10-06T10:05:34.877Z,1.85
2022-10-06T10:08:25.172Z,1.40
2022-10-06T10:11:32.600Z,1.10
2022-10-06T10:14:00.566Z,1.73
2022-10-06T10:16:35.099Z,1.10
2022-10-06T10:19:04.199Z,1.48
2022-10-06T10:21:35.743Z,1.50
2022-10-06T10:24:06.822Z,2.13
2022-10-06T10:26:42.252Z,1.83
2022-10-06T10:29:18.848Z,1.23
2022-10-06T10:32:04.948Z,1.17
2022-10-06T10:34:51.087Z,1.77
2022-10-06T10:37:24.910Z,1.50
2022-10-06T10:39:55.360Z,1.42
2022-10-06T10:42:29.242Z,0.95
2022-10-06T10:45:06.630Z,1.42
2022-10-06T10:47:37.877Z,1.35
2022-10-06T10:50:09.640Z,2.53
2022-10-06T10:52:42.219Z,1.40
2022-10-06T10:55:28.298Z,2.15
2022-10-06T10:58:18.983Z,1.73
2022-10-06T11:00:50.657Z,1.67
2022-10-06T11:03:18.207Z,1.60
2022-10-06T11:05:57.739Z,1.33
2022-10-06T11:08:31.363Z,1.20
2022-10-06T11:11:03.280Z,1.80
2022-10-06T11:13:35.362Z,1.30
2022-10-06T11:16:19.388Z,2.10
2022-10-06T11:18:55.812Z,1.03
2022-10-06T11:21:44.868Z,2.20
2022-10-06T11:24:15.328Z,1.52
2022-10-06T11:27:11.826Z,1.63
2022-10-06T11:29:50.566Z,1.85
2022-10-06T11:32:18.577Z,1.70
2022-10-06T11:34:48.915Z,2.65
2022-10-06T11:37:35.838Z,1.65
2022-10-06T11:40:21.837Z,1.80
2022-10-06T11:42:59.128Z,1.35
2022-10-06T11:45:52.854Z,1.77
2022-10-06T11:48:24.031Z,1.25
2022-10-06T11:50:55.931Z,1.77
2022-10-06T11:53:28.438Z,2.35
2022-10-06T11:56:16.683Z,1.55
2022-10-06T11:58:55.788Z,1.15
2022-10-06T12:01:35.409Z,1.85
2022-10-06T12:04:09.055Z,1.15
2022-10-06T12:06:48.281Z,1.65
2022-10-06T12:09:24.802Z,1.73
2022-10-06T12:11:53.476Z,1.25
2022-10-06T12:17:33.804Z,1.42
2022-10-06T12:20:19.678Z,1.83
2022-10-06T12:22:53.087Z,1.73
2022-10-06T12:25:28.607Z,1.23
2022-10-06T12:28:05.769Z,1.63
2022-10-06T12:31:00.283Z,1.02
2022-10-06T12:33:57.239Z,1.52
2022-10-06T12:36:29.381Z,1.60
2022-10-06T12:39:08.581Z,1.77
2022-10-06T12:41:55.515Z,2.63
2022-10-06T12:44:24.305Z,1.98
2022-10-06T12:46:52.119Z,2.20
2022-10-06T12:49:22.848Z,1.95
2022-10-06T12:51:52.408Z,2.35
2022-10-06T12:54:43.238Z,3.22
2022-10-06T12:57:21.292Z,2.45
2022-10-06T12:59:50.217Z,2.20
2022-10-06T13:02:25.963Z,1.65
2022-10-06T13:05:01.060Z,1.70
2022-10-06T13:07:33.684Z,2.10
2022-10-06T13:10:16.454Z,2.35
2022-10-06T13:12:47.988Z,1.45
2022-10-06T13:15:15.433Z,1.95
2022-10-06T13:17:50.516Z,2.33
2022-10-06T13:20:20.888Z,1.60
2022-10-06T13:22:55.661Z,1.85
2022-10-06T13:25:23.103Z,1.90
2022-10-06T13:27:53.627Z,1.58
2022-10-06T13:30:22.016Z,2.08
2022-10-06T13:32:53.197Z,1.70
2022-10-06T13:35:23.350Z,1.73
2022-10-06T13:37:51.598Z,1.92
2022-10-06T13:40:44.064Z,1.90
2022-10-06T13:43:17.794Z,1.70
2022-10-06T13:45:46.383Z,1.40
2022-10-06T13:48:20.317Z,1.77
2022-10-06T13:50:48.629Z,1.33
2022-10-06T13:53:26.275Z,1.13
2022-10-06T13:55:54.159Z,1.05
2022-10-06T13:58:24.833Z,0.75
2022-10-06T14:00:52.241Z,1.17
2022-10-06T14:03:24.486Z,0.77
2022-10-06T14:05:54.206Z,0.63
2022-10-06T14:08:27.323Z,1.27
2022-10-06T14:10:58.810Z,1.58
2022-10-06T14:13:31.250Z,1.30
2022-10-06T14:16:22.222Z,0.82
2022-10-06T14:18:56.966Z,0.85
2022-10-06T14:21:37.238Z,0.95
2022-10-06T14:24:07.809Z,0.93
2022-10-06T14:26:38.162Z,0.45
2022-10-06T14:29:05.677Z,0.52
2022-10-06T14:31:34.125Z,0.75
2022-10-06T14:34:01.910Z,0.70
2022-10-06T14:36:30.791Z,0.57
2022-10-06T14:38:59.351Z,0.47
2022-10-06T14:41:30.466Z,0.95
2022-10-06T14:44:06.676Z,0.57
2022-10-06T14:46:34.266Z,0.50
2022-10-06T14:49:04.471Z,0.73
2022-10-06T14:51:36.605Z,0.73
2022-10-06T14:54:05.387Z,0.80
2022-10-06T14:56:34.252Z,0.55
2022-10-06T14:59:06.259Z,0.47
2022-10-06T15:01:35.186Z,0.60
2022-10-06T15:04:28.986Z,0.55
2022-10-06T15:07:15.719Z,0.75
2022-10-06T15:09:43.403Z,0.50
2022-10-06T15:12:10.824Z,0.52
2022-10-06T15:14:40.252Z,0.52
2022-10-06T15:17:07.634Z,0.50
2022-10-06T15:19:34.993Z,0.38
2022-10-06T15:22:04.435Z,0.88
2022-10-06T15:24:31.838Z,0.45
2022-10-06T15:27:21.163Z,0.88
2022-10-06T15:29:51.359Z,0.60
2022-10-06T15:32:18.673Z,0.75
2022-10-06T16:22:32.679Z,0.90
2022-10-06T16:25:00.110Z,0.60
2022-10-06T16:27:32.598Z,1.10
2022-10-06T16:30:03.228Z,0.70
2022-10-06T16:40:31.750Z,0.83
2022-10-06T16:42:59.313Z,1.10
2022-10-06T16:50:43.157Z,0.55
2022-10-06T16:53:16.737Z,0.50
2022-10-06T16:55:45.296Z,0.60
2022-10-06T16:58:15.022Z,0.80
2022-10-06T17:00:42.848Z,0.70
2022-10-06T17:22:07.663Z,0.83
2022-10-06T17:24:35.210Z,0.30
2022-10-06T17:27:02.758Z,0.30
2022-10-06T17:29:30.226Z,0.57
2022-10-06T17:32:00.425Z,0.65
2022-10-06T17:34:32.347Z,0.43
2022-10-06T17:39:27.908Z,0.45
2022-10-06T17:41:55.370Z,0.40
2022-10-06T17:44:24.659Z,0.68
2022-10-06T17:46:53.531Z,0.60
2022-10-06T17:49:22.145Z,0.65
2022-10-06T18:36:12.028Z,0.40
2022-10-06T18:38:43.810Z,0.70
2022-10-06T18:41:13.937Z,0.50
2022-10-06T18:43:41.360Z,0.25
2022-10-06T18:46:27.828Z,1.13
2022-10-06T18:49:01.348Z,0.98
2022-10-06T18:51:31.991Z,0.32
2022-10-06T18:54:00.059Z,0.50
2022-10-06T18:56:31.915Z,0.40
2022-10-06T18:59:00.596Z,0.57
2022-10-06T19:01:28.565Z,0.28
2022-10-06T19:03:57.015Z,0.40
2022-10-06T19:06:26.601Z,0.60
2022-10-06T19:08:57.536Z,0.93
2022-10-06T19:11:45.004Z,0.32
2022-10-06T19:14:14.028Z,0.52
2022-10-06T19:16:42.376Z,0.65
2022-10-06T19:19:11.437Z,0.50
2022-10-06T19:21:41.437Z,0.40
2022-10-06T19:24:10.361Z,0.30
2022-10-06T19:26:41.291Z,0.52
2022-10-06T19:29:11.890Z,0.35
2022-10-06T19:31:42.210Z,0.50
2022-10-06T19:34:11.691Z,0.68
2022-10-06T19:36:41.195Z,0.40
2022-10-06T19:39:11.051Z,0.73
2022-10-06T19:42:00.361Z,0.50
2022-10-06T19:44:28.101Z,0.40
2022-10-06T19:46:55.916Z,0.50
2022-10-06T19:49:23.385Z,0.82
2022-10-06T19:51:51.356Z,0.82
2022-10-06T19:54:19.749Z,2.97
2022-10-06T19:56:47.700Z,0.75
2022-10-06T19:59:16.529Z,0.55
2022-10-06T20:01:44.607Z,0.43
2022-10-06T20:04:12.990Z,0.35
2022-10-06T20:06:41.997Z,0.60
2022-10-06T20:09:10.925Z,0.55
2022-10-06T20:11:39.455Z,0.68
2022-10-06T20:14:09.948Z,0.80
2022-10-06T20:16:39.174Z,0.65
2022-10-06T20:19:06.716Z,0.60
2022-10-06T20:21:35.896Z,0.65
2022-10-06T20:24:04.760Z,0.68
2022-10-06T20:26:39.474Z,0.40
2022-10-06T20:29:21.018Z,0.55
2022-10-06T20:31:50.081Z,0.50
2022-10-06T20:34:18.876Z,0.73
2022-10-06T20:36:49.531Z,0.88
2022-10-06T20:39:38.967Z,0.40
2022-10-06T20:42:14.963Z,0.52
2022-10-06T20:44:42.849Z,0.43
2022-10-06T20:47:14.875Z,0.50
2022-10-06T20:49:43.102Z,0.68
2022-10-06T20:52:10.581Z,0.90
2022-10-06T20:54:38.000Z,0.70
2022-10-06T20:57:06.463Z,0.38
2022-10-06T20:59:35.805Z,0.60
2022-10-06T21:02:03.744Z,0.63
2022-10-06T21:04:31.430Z,0.30
2022-10-06T21:06:58.883Z,0.40
2022-10-06T21:09:28.897Z,0.47
2022-10-06T21:11:58.210Z,0.90
2022-10-06T21:14:25.668Z,0.65
2022-10-06T21:16:53.133Z,0.47
2022-10-06T21:19:20.873Z,0.47
2022-10-06T21:21:54.762Z,0.95
2022-10-06T21:24:22.278Z,1.08
2022-10-06T21:26:50.404Z,0.75
2022-10-06T21:29:17.858Z,0.40
2022-10-06T21:31:46.615Z,0.47
2022-10-06T21:34:16.718Z,0.43
2022-10-06T21:36:44.657Z,0.40
2022-10-06T21:39:12.785Z,0.47
2022-10-06T21:41:40.580Z,0.52
2022-10-06T21:44:09.112Z,1.23
2022-10-06T21:46:38.428Z,1.08
2022-10-06T21:49:08.488Z,0.50
2022-10-06T21:51:35.976Z,0.95
2022-10-06T21:54:04.374Z,0.70
2022-10-06T21:56:33.633Z,0.55
2022-10-06T21:59:01.310Z,0.70
2022-10-06T22:01:32.925Z,0.70
2022-10-06T22:04:03.669Z,0.60
2022-10-06T22:06:32.072Z,0.93
2022-10-06T22:09:01.153Z,1.30
2022-10-06T22:11:30.105Z,0.57
2022-10-06T22:13:59.442Z,1.05
2022-10-06T22:16:28.028Z,0.80
2022-10-06T22:18:55.617Z,0.90
2022-10-06T22:21:24.473Z,0.90
2022-10-06T22:24:00.537Z,0.68
2022-10-06T22:26:29.096Z,0.80
2022-10-06T22:28:58.242Z,1.45
2022-10-06T22:31:26.620Z,1.17
2022-10-06T22:33:55.854Z,2.00
2022-10-06T22:36:23.859Z,2.03
2022-10-06T22:38:51.379Z,1.88
2022-10-06T22:41:19.030Z,1.02
2022-10-06T22:43:47.913Z,1.85
2022-10-06T22:46:15.461Z,0.80
2022-10-06T22:48:42.967Z,0.73
2022-10-06T22:51:10.430Z,1.20
2022-10-06T22:53:37.862Z,1.17
2022-10-06T22:56:05.338Z,0.85
2022-10-06T22:58:32.913Z,0.85
2022-10-06T23:01:09.181Z,0.40
2022-10-06T23:03:36.699Z,0.50
2022-10-06T23:06:06.093Z,0.38
2022-10-06T23:08:35.462Z,0.35
2022-10-06T23:11:07.493Z,0.52
2022-10-06T23:13:35.694Z,0.80
2022-10-06T23:16:08.068Z,0.63
2022-10-06T23:18:37.373Z,0.75
2022-10-06T23:21:08.720Z,0.80
2022-10-06T23:23:38.735Z,0.80
2022-10-06T23:26:07.716Z,0.40
2022-10-06T23:28:35.250Z,0.52
2022-10-06T23:31:04.715Z,1.10
2022-10-06T23:33:33.096Z,0.32
2022-10-06T23:36:05.024Z,0.82
2022-10-06T23:38:32.606Z,0.77
2022-10-06T23:41:01.071Z,0.82
2022-10-06T23:43:28.425Z,1.77
2022-10-06T23:45:55.840Z,0.73
2022-10-06T23:48:23.762Z,0.60
2022-10-06T23:51:01.811Z,0.93
2022-10-06T23:53:29.510Z,0.60
2022-10-06T23:55:57.313Z,0.93
2022-10-06T23:58:25.176Z,0.75
